LDOV weather

Vinkovci Sopot Airport
Vinkovci, Vukovar-Srijem County, Croatia

Public forecast

Using degrees Celsius for public forecast. Weather courtesy of forecast.io.

METAR (pilot weather report)

Closest report is Osijek Airport, 12.9 nm (23.9 km) N. Retrieved 2019/06/16 07:30 UTC (27 minutes ago):

LDOS 160730Z 09004KT 020V140 CAVOK 28/21 Q1012

TAF (pilot weather forecast)

Closest forecast is Osijek Airport, 12.9 nm (23.9 km) N. Retrieved 2019/06/16 06:27 UTC (1 hour ago):

TAF LDOS 160525Z 1606/1706 VRB02KT CAVOK TX32/1613Z TN19/1703Z BECMG 1615/1617 02010KT PROB40 TEMPO 1615/1618 TSRA FEW045CB SCT050 TEMPO 1618/1623 02020G30KT 4000 +TSRA SCT030CB BKN040 PROB30 TEMPO 1623/1706 TSRA FEW030CB BKN035